sensor_id;sensor_type;location;lat;lon;timestamp;pressure;altitude;pressure_sealevel;temperature;humidity
84511;BME280;74730;43.858;18.424;2024-03-02T00:00:01;94692.53;;;7.64;62.84
84511;BME280;74730;43.858;18.424;2024-03-02T00:02:45;94689.31;;;7.55;62.03
84511;BME280;74730;43.858;18.424;2024-03-02T00:05:15;94689.91;;;7.50;63.38
84511;BME280;74730;43.858;18.424;2024-03-02T00:07:53;94692.06;;;7.47;62.98
84511;BME280;74730;43.858;18.424;2024-03-02T00:10:22;94691.25;;;7.46;63.23
84511;BME280;74730;43.858;18.424;2024-03-02T00:12:54;94689.50;;;7.47;63.42
84511;BME280;74730;43.858;18.424;2024-03-02T00:18:01;94689.66;;;7.45;62.32
84511;BME280;74730;43.858;18.424;2024-03-02T00:20:27;94690.47;;;7.46;63.04
84511;BME280;74730;43.858;18.424;2024-03-02T00:23:02;94697.97;;;7.47;63.56
84511;BME280;74730;43.858;18.424;2024-03-02T00:25:42;94701.16;;;7.49;63.32
84511;BME280;74730;43.858;18.424;2024-03-02T00:28:17;94694.41;;;7.48;62.04
84511;BME280;74730;43.858;18.424;2024-03-02T00:33:35;94699.94;;;7.45;62.25
84511;BME280;74730;43.858;18.424;2024-03-02T00:36:02;94701.91;;;7.43;62.95
84511;BME280;74730;43.858;18.424;2024-03-02T00:38:31;94693.59;;;7.41;62.68
84511;BME280;74730;43.858;18.424;2024-03-02T00:41:00;94695.56;;;7.39;63.78
84511;BME280;74730;43.858;18.424;2024-03-02T00:43:38;94703.66;;;7.43;62.92
84511;BME280;74730;43.858;18.424;2024-03-02T00:46:06;94697.31;;;7.39;63.34
84511;BME280;74730;43.858;18.424;2024-03-02T00:48:32;94694.75;;;7.39;63.17
84511;BME280;74730;43.858;18.424;2024-03-02T00:51:01;94702.47;;;7.39;62.55
84511;BME280;74730;43.858;18.424;2024-03-02T00:53:29;94701.31;;;7.41;62.63
84511;BME280;74730;43.858;18.424;2024-03-02T00:55:55;94703.09;;;7.41;62.62
84511;BME280;74730;43.858;18.424;2024-03-02T00:58:21;94704.84;;;7.40;63.71
84511;BME280;74730;43.858;18.424;2024-03-02T01:00:46;94702.66;;;7.37;63.46
84511;BME280;74730;43.858;18.424;2024-03-02T01:03:12;94705.41;;;7.36;63.19
84511;BME280;74730;43.858;18.424;2024-03-02T01:05:44;94702.84;;;7.36;63.96
84511;BME280;74730;43.858;18.424;2024-03-02T01:08:10;94703.44;;;7.38;63.46
84511;BME280;74730;43.858;18.424;2024-03-02T01:10:36;94701.88;;;7.37;63.66
84511;BME280;74730;43.858;18.424;2024-03-02T01:13:02;94696.16;;;7.41;64.00
84511;BME280;74730;43.858;18.424;2024-03-02T01:15:27;94702.69;;;7.44;63.16
84511;BME280;74730;43.858;18.424;2024-03-02T01:17:53;94704.66;;;7.42;63.37
84511;BME280;74730;43.858;18.424;2024-03-02T01:20:18;94701.25;;;7.35;63.05
84511;BME280;74730;43.858;18.424;2024-03-02T01:22:44;94692.72;;;7.28;63.26
84511;BME280;74730;43.858;18.424;2024-03-02T01:25:10;94698.44;;;7.23;64.31
84511;BME280;74730;43.858;18.424;2024-03-02T01:27:35;94701.75;;;7.17;64.43
84511;BME280;74730;43.858;18.424;2024-03-02T01:30:01;94691.06;;;7.13;63.74
84511;BME280;74730;43.858;18.424;2024-03-02T01:32:26;94695.72;;;7.03;64.20
84511;BME280;74730;43.858;18.424;2024-03-02T01:34:52;94690.97;;;7.00;64.92
84511;BME280;74730;43.858;18.424;2024-03-02T01:37:17;94692.53;;;7.01;64.71
84511;BME280;74730;43.858;18.424;2024-03-02T01:39:43;94690.97;;;7.00;65.21
84511;BME280;74730;43.858;18.424;2024-03-02T01:42:09;94682.72;;;7.05;64.57
84511;BME280;74730;43.858;18.424;2024-03-02T01:44:36;94683.13;;;7.08;64.19
84511;BME280;74730;43.858;18.424;2024-03-02T01:47:01;94687.47;;;7.08;63.98
84511;BME280;74730;43.858;18.424;2024-03-02T01:49:27;94683.91;;;7.09;64.13
84511;BME280;74730;43.858;18.424;2024-03-02T01:51:53;94691.25;;;7.12;64.36
84511;BME280;74730;43.858;18.424;2024-03-02T01:54:18;94688.66;;;7.12;64.46
84511;BME280;74730;43.858;18.424;2024-03-02T01:56:44;94681.16;;;7.10;63.61
84511;BME280;74730;43.858;18.424;2024-03-02T01:59:15;94674.81;;;7.06;64.27
84511;BME280;74730;43.858;18.424;2024-03-02T02:01:40;94680.31;;;7.03;64.30
84511;BME280;74730;43.858;18.424;2024-03-02T02:04:06;94677.13;;;7.01;64.41
84511;BME280;74730;43.858;18.424;2024-03-02T02:06:32;94664.88;;;6.97;64.31
84511;BME280;74730;43.858;18.424;2024-03-02T02:08:58;94672.00;;;7.01;65.00
84511;BME280;74730;43.858;18.424;2024-03-02T02:11:24;94683.03;;;6.95;64.31
84511;BME280;74730;43.858;18.424;2024-03-02T02:13:50;94672.34;;;6.92;65.25
84511;BME280;74730;43.858;18.424;2024-03-02T02:16:16;94678.81;;;6.88;64.99
84511;BME280;74730;43.858;18.424;2024-03-02T02:18:41;94674.69;;;6.87;65.52
84511;BME280;74730;43.858;18.424;2024-03-02T02:21:07;94674.25;;;6.83;64.99
84511;BME280;74730;43.858;18.424;2024-03-02T02:23:33;94675.44;;;6.81;65.97
84511;BME280;74730;43.858;18.424;2024-03-02T02:25:58;94678.16;;;6.79;65.71
84511;BME280;74730;43.858;18.424;2024-03-02T02:28:24;94677.56;;;6.77;65.43
84511;BME280;74730;43.858;18.424;2024-03-02T02:30:49;94678.56;;;6.76;65.91
84511;BME280;74730;43.858;18.424;2024-03-02T02:33:15;94677.56;;;6.77;66.27
84511;BME280;74730;43.858;18.424;2024-03-02T02:35:41;94682.94;;;6.82;65.78
84511;BME280;74730;43.858;18.424;2024-03-02T02:38:06;94677.56;;;6.77;65.60
84511;BME280;74730;43.858;18.424;2024-03-02T02:40:32;94679.34;;;6.77;66.13
84511;BME280;74730;43.858;18.424;2024-03-02T02:42:58;94687.59;;;6.72;65.70
84511;BME280;74730;43.858;18.424;2024-03-02T02:45:24;94686.38;;;6.68;65.75
84511;BME280;74730;43.858;18.424;2024-03-02T02:47:50;94689.50;;;6.63;66.37
84511;BME280;74730;43.858;18.424;2024-03-02T02:50:16;94693.84;;;6.63;66.70
84511;BME280;74730;43.858;18.424;2024-03-02T02:52:42;94693.84;;;6.63;66.33
84511;BME280;74730;43.858;18.424;2024-03-02T02:55:10;94690.47;;;6.62;66.19
84511;BME280;74730;43.858;18.424;2024-03-02T02:57:37;94693.22;;;6.61;66.65
84511;BME280;74730;43.858;18.424;2024-03-02T03:00:09;94696.53;;;6.55;67.42
84511;BME280;74730;43.858;18.424;2024-03-02T03:02:41;94689.56;;;6.49;67.79
84511;BME280;74730;43.858;18.424;2024-03-02T03:05:09;94689.34;;;6.44;67.78
84511;BME280;74730;43.858;18.424;2024-03-02T03:07:34;94685.38;;;6.41;67.51
84511;BME280;74730;43.858;18.424;2024-03-02T03:10:03;94687.69;;;6.36;67.25
84511;BME280;74730;43.858;18.424;2024-03-02T03:12:30;94693.97;;;6.34;67.06
84511;BME280;74730;43.858;18.424;2024-03-02T03:14:56;94701.41;;;6.29;66.89
84511;BME280;74730;43.858;18.424;2024-03-02T03:17:22;94694.25;;;6.24;67.04
84511;BME280;74730;43.858;18.424;2024-03-02T03:19:49;94700.94;;;6.18;67.03
84511;BME280;74730;43.858;18.424;2024-03-02T03:22:14;94708.38;;;6.13;68.05
84511;BME280;74730;43.858;18.424;2024-03-02T03:24:40;94708.72;;;6.10;68.08
84511;BME280;74730;43.858;18.424;2024-03-02T03:27:05;94710.44;;;6.03;68.92
84511;BME280;74730;43.858;18.424;2024-03-02T03:29:31;94714.94;;;6.01;68.00
84511;BME280;74730;43.858;18.424;2024-03-02T03:31:56;94713.72;;;5.97;68.34
84511;BME280;74730;43.858;18.424;2024-03-02T03:34:22;94719.03;;;5.96;68.47
84511;BME280;74730;43.858;18.424;2024-03-02T03:36:47;94715.41;;;5.90;69.10
84511;BME280;74730;43.858;18.424;2024-03-02T03:39:13;94721.84;;;5.86;69.09
84511;BME280;74730;43.858;18.424;2024-03-02T03:41:40;94719.63;;;5.83;69.18
84511;BME280;74730;43.858;18.424;2024-03-02T03:44:06;94723.16;;;5.82;69.96
84511;BME280;74730;43.858;18.424;2024-03-02T03:46:31;94722.38;;;5.82;70.18
84511;BME280;74730;43.858;18.424;2024-03-02T03:48:57;94728.47;;;5.80;69.25
84511;BME280;74730;43.858;18.424;2024-03-02T03:51:22;94730.59;;;5.77;69.81
84511;BME280;74730;43.858;18.424;2024-03-02T03:53:48;94727.59;;;5.73;69.77
84511;BME280;74730;43.858;18.424;2024-03-02T03:56:14;94726.97;;;5.71;69.02
84511;BME280;74730;43.858;18.424;2024-03-02T03:58:39;94728.31;;;5.67;69.27
84511;BME280;74730;43.858;18.424;2024-03-02T04:01:05;94737.13;;;5.65;70.14
84511;BME280;74730;43.858;18.424;2024-03-02T04:03:30;94733.34;;;5.61;69.89
84511;BME280;74730;43.858;18.424;2024-03-02T04:05:56;94732.13;;;5.57;69.57
84511;BME280;74730;43.858;18.424;2024-03-02T04:08:22;94736.00;;;5.53;70.17
84511;BME280;74730;43.858;18.424;2024-03-02T04:10:48;94743.25;;;5.49;70.36
84511;BME280;74730;43.858;18.424;2024-03-02T04:13:13;94745.19;;;5.47;70.56
84511;BME280;74730;43.858;18.424;2024-03-02T04:15:39;94752.25;;;5.45;70.21
84511;BME280;74730;43.858;18.424;2024-03-02T04:18:06;94749.59;;;5.39;70.00
84511;BME280;74730;43.858;18.424;2024-03-02T04:20:31;94748.00;;;5.38;70.55
84511;BME280;74730;43.858;18.424;2024-03-02T04:22:57;94747.56;;;5.34;70.15
84511;BME280;74730;43.858;18.424;2024-03-02T04:25:22;94748.72;;;5.31;70.99
84511;BME280;74730;43.858;18.424;2024-03-02T04:27:48;94752.56;;;5.27;71.29
84511;BME280;74730;43.858;18.424;2024-03-02T04:30:14;94754.53;;;5.25;71.10
84511;BME280;74730;43.858;18.424;2024-03-02T04:32:39;94759.66;;;5.25;70.91
84511;BME280;74730;43.858;18.424;2024-03-02T04:35:05;94763.53;;;5.21;71.29
84511;BME280;74730;43.858;18.424;2024-03-02T04:37:34;94763.72;;;5.20;71.44
84511;BME280;74730;43.858;18.424;2024-03-02T04:39:59;94767.88;;;5.21;71.45
84511;BME280;74730;43.858;18.424;2024-03-02T04:42:25;94773.16;;;5.19;70.65
84511;BME280;74730;43.858;18.424;2024-03-02T04:44:51;94775.25;;;5.16;70.81
84511;BME280;74730;43.858;18.424;2024-03-02T04:47:16;94784.72;;;5.15;71.07
84511;BME280;74730;43.858;18.424;2024-03-02T04:49:42;94780.91;;;5.11;71.44
84511;BME280;74730;43.858;18.424;2024-03-02T04:52:08;94786.38;;;5.08;71.80
84511;BME280;74730;43.858;18.424;2024-03-02T04:54:34;94789.72;;;5.09;71.45
84511;BME280;74730;43.858;18.424;2024-03-02T04:57:19;94786.53;;;5.07;71.25
84511;BME280;74730;43.858;18.424;2024-03-02T04:59:45;94787.66;;;5.04;71.12
84511;BME280;74730;43.858;18.424;2024-03-02T05:02:10;94789.63;;;5.02;71.54
84511;BME280;74730;43.858;18.424;2024-03-02T05:04:36;94789.97;;;4.99;71.71
84511;BME280;74730;43.858;18.424;2024-03-02T05:07:01;94788.69;;;4.95;71.79
84511;BME280;74730;43.858;18.424;2024-03-02T05:09:27;94794.34;;;4.90;71.10
84511;BME280;74730;43.858;18.424;2024-03-02T05:11:52;94789.56;;;4.87;71.88
84511;BME280;74730;43.858;18.424;2024-03-02T05:14:37;94804.31;;;4.85;71.82
84511;BME280;74730;43.858;18.424;2024-03-02T05:17:03;94801.28;;;4.82;71.75
84511;BME280;74730;43.858;18.424;2024-03-02T05:19:29;94804.19;;;4.79;71.78
84511;BME280;74730;43.858;18.424;2024-03-02T05:21:54;94804.03;;;4.80;71.69
84511;BME280;74730;43.858;18.424;2024-03-02T05:24:20;94802.09;;;4.82;71.80
84511;BME280;74730;43.858;18.424;2024-03-02T05:26:46;94803.84;;;4.82;72.17
84511;BME280;74730;43.858;18.424;2024-03-02T05:29:11;94810.28;;;4.78;72.14
84511;BME280;74730;43.858;18.424;2024-03-02T05:31:37;94815.75;;;4.75;72.55
84511;BME280;74730;43.858;18.424;2024-03-02T05:34:02;94811.75;;;4.72;72.14
84511;BME280;74730;43.858;18.424;2024-03-02T05:36:28;94812.22;;;4.76;72.47
84511;BME280;74730;43.858;18.424;2024-03-02T05:38:54;94813.47;;;4.80;71.81
84511;BME280;74730;43.858;18.424;2024-03-02T05:41:19;94814.38;;;4.87;71.41
84511;BME280;74730;43.858;18.424;2024-03-02T05:43:46;94820.41;;;4.94;71.30
84511;BME280;74730;43.858;18.424;2024-03-02T05:46:11;94815.22;;;5.02;71.22
84511;BME280;74730;43.858;18.424;2024-03-02T05:48:37;94818.22;;;5.06;70.98
84511;BME280;74730;43.858;18.424;2024-03-02T05:51:02;94819.66;;;5.08;70.69
84511;BME280;74730;43.858;18.424;2024-03-02T05:53:28;94817.19;;;5.15;70.48
84511;BME280;74730;43.858;18.424;2024-03-02T05:55:54;94821.69;;;5.13;70.77
84511;BME280;74730;43.858;18.424;2024-03-02T05:58:21;94824.69;;;5.16;70.34
84511;BME280;74730;43.858;18.424;2024-03-02T06:01:08;94823.50;;;5.27;70.27
84511;BME280;74730;43.858;18.424;2024-03-02T06:03:34;94826.78;;;5.35;69.17
84511;BME280;74730;43.858;18.424;2024-03-02T06:05:59;94830.22;;;5.43;68.77
84511;BME280;74730;43.858;18.424;2024-03-02T06:08:25;94829.81;;;5.54;68.78
84511;BME280;74730;43.858;18.424;2024-03-02T06:10:50;94828.50;;;5.58;68.42
84511;BME280;74730;43.858;18.424;2024-03-02T06:13:16;94831.13;;;5.64;68.08
84511;BME280;74730;43.858;18.424;2024-03-02T06:15:41;94837.31;;;5.70;68.26
84511;BME280;74730;43.858;18.424;2024-03-02T06:18:07;94842.81;;;5.82;68.04
84511;BME280;74730;43.858;18.424;2024-03-02T06:20:33;94833.13;;;5.92;67.28
84511;BME280;74730;43.858;18.424;2024-03-02T06:22:59;94840.81;;;6.06;66.79
84511;BME280;74730;43.858;18.424;2024-03-02T06:25:24;94840.38;;;6.17;66.03
84511;BME280;74730;43.858;18.424;2024-03-02T06:27:50;94840.53;;;6.31;65.92
84511;BME280;74730;43.858;18.424;2024-03-02T06:30:15;94834.03;;;6.49;66.09
84511;BME280;74730;43.858;18.424;2024-03-02T06:32:41;94832.41;;;6.63;64.94
84511;BME280;74730;43.858;18.424;2024-03-02T06:35:06;94832.38;;;6.78;64.66
84511;BME280;74730;43.858;18.424;2024-03-02T06:37:36;94827.28;;;6.84;63.83
84511;BME280;74730;43.858;18.424;2024-03-02T06:40:02;94823.63;;;6.93;63.90
84511;BME280;74730;43.858;18.424;2024-03-02T06:42:28;94829.41;;;7.02;63.96
84511;BME280;74730;43.858;18.424;2024-03-02T06:44:58;94832.44;;;7.05;63.35
84511;BME280;74730;43.858;18.424;2024-03-02T06:47:24;94827.91;;;7.07;64.24
84511;BME280;74730;43.858;18.424;2024-03-02T06:49:49;94833.69;;;7.16;62.92
84511;BME280;74730;43.858;18.424;2024-03-02T06:52:16;94830.88;;;7.11;63.30
84511;BME280;74730;43.858;18.424;2024-03-02T06:54:41;94830.88;;;7.11;63.01
84511;BME280;74730;43.858;18.424;2024-03-02T06:57:07;94822.03;;;7.13;63.01
84511;BME280;74730;43.858;18.424;2024-03-02T06:59:32;94829.31;;;7.10;63.14
84511;BME280;74730;43.858;18.424;2024-03-02T07:01:59;94826.19;;;7.15;62.53
84511;BME280;74730;43.858;18.424;2024-03-02T07:04:24;94828.75;;;7.15;62.65
84511;BME280;74730;43.858;18.424;2024-03-02T07:06:50;94830.53;;;7.14;63.07
84511;BME280;74730;43.858;18.424;2024-03-02T07:09:16;94813.56;;;7.20;63.22
84511;BME280;74730;43.858;18.424;2024-03-02T07:11:42;94819.00;;;7.31;63.15
84511;BME280;74730;43.858;18.424;2024-03-02T07:14:08;94827.63;;;7.45;62.18
84511;BME280;74730;43.858;18.424;2024-03-02T07:16:34;94830.66;;;7.55;62.32
84511;BME280;74730;43.858;18.424;2024-03-02T07:19:00;94838.28;;;7.70;62.00
84511;BME280;74730;43.858;18.424;2024-03-02T07:21:27;94841.16;;;7.88;61.26
84511;BME280;74730;43.858;18.424;2024-03-02T07:23:53;94835.53;;;8.06;60.87
84511;BME280;74730;43.858;18.424;2024-03-02T07:26:18;94831.63;;;8.23;60.97
84511;BME280;74730;43.858;18.424;2024-03-02T07:28:48;94837.09;;;8.41;60.25
84511;BME280;74730;43.858;18.424;2024-03-02T07:31:14;94826.88;;;8.61;60.28
84511;BME280;74730;43.858;18.424;2024-03-02T07:33:40;94838.97;;;8.73;59.07
84511;BME280;74730;43.858;18.424;2024-03-02T07:36:07;94834.06;;;8.92;59.17
84511;BME280;74730;43.858;18.424;2024-03-02T07:38:32;94830.94;;;9.16;59.31
84511;BME280;74730;43.858;18.424;2024-03-02T07:41:00;94826.00;;;9.47;57.58
84511;BME280;74730;43.858;18.424;2024-03-02T07:43:25;94832.66;;;10.07;56.53
84511;BME280;74730;43.858;18.424;2024-03-02T07:45:51;94839.69;;;11.27;53.55
84511;BME280;74730;43.858;18.424;2024-03-02T07:48:16;94835.97;;;12.82;48.92
84511;BME280;74730;43.858;18.424;2024-03-02T07:50:42;94830.88;;;14.40;46.01
84511;BME280;74730;43.858;18.424;2024-03-02T07:53:08;94832.19;;;15.67;41.48
84511;BME280;74730;43.858;18.424;2024-03-02T07:55:34;94834.03;;;16.87;39.80
84511;BME280;74730;43.858;18.424;2024-03-02T07:58:00;94831.31;;;17.84;37.93
84511;BME280;74730;43.858;18.424;2024-03-02T08:00:26;94846.94;;;18.58;35.91
84511;BME280;74730;43.858;18.424;2024-03-02T08:02:53;94843.25;;;19.36;34.02
84511;BME280;74730;43.858;18.424;2024-03-02T08:05:19;94837.25;;;19.71;33.53
84511;BME280;74730;43.858;18.424;2024-03-02T08:07:45;94831.72;;;20.18;32.23
84511;BME280;74730;43.858;18.424;2024-03-02T08:10:12;94835.06;;;20.49;31.85
84511;BME280;74730;43.858;18.424;2024-03-02T08:12:38;94832.13;;;20.76;30.66
84511;BME280;74730;43.858;18.424;2024-03-02T08:15:03;94826.75;;;21.01;30.37
84511;BME280;74730;43.858;18.424;2024-03-02T08:17:30;94829.63;;;21.00;30.63
84511;BME280;74730;43.858;18.424;2024-03-02T08:19:56;94826.25;;;20.94;30.05
84511;BME280;74730;43.858;18.424;2024-03-02T08:22:22;94822.59;;;20.90;29.82
84511;BME280;74730;43.858;18.424;2024-03-02T08:24:48;94828.94;;;20.79;30.55
84511;BME280;74730;43.858;18.424;2024-03-02T08:27:14;94821.63;;;20.71;30.63
84511;BME280;74730;43.858;18.424;2024-03-02T08:29:40;94824.59;;;20.49;30.66
84511;BME280;74730;43.858;18.424;2024-03-02T08:32:06;94822.00;;;20.29;30.86
84511;BME280;74730;43.858;18.424;2024-03-02T08:34:32;94815.97;;;20.39;30.55
84511;BME280;74730;43.858;18.424;2024-03-02T08:36:59;94825.44;;;20.34;31.23
84511;BME280;74730;43.858;18.424;2024-03-02T08:39:25;94824.38;;;20.30;31.75
84511;BME280;74730;43.858;18.424;2024-03-02T08:41:50;94815.44;;;20.42;31.44
84511;BME280;74730;43.858;18.424;2024-03-02T08:44:16;94824.38;;;20.35;31.17
84511;BME280;74730;43.858;18.424;2024-03-02T08:46:42;94826.47;;;20.23;31.34
84511;BME280;74730;43.858;18.424;2024-03-02T08:49:08;94822.53;;;20.31;31.42
84511;BME280;74730;43.858;18.424;2024-03-02T08:51:34;94817.28;;;20.41;30.83
84511;BME280;74730;43.858;18.424;2024-03-02T08:54:00;94817.81;;;20.28;31.14
84511;BME280;74730;43.858;18.424;2024-03-02T08:56:25;94819.66;;;20.22;31.40
84511;BME280;74730;43.858;18.424;2024-03-02T08:58:52;94822.03;;;20.19;31.45
84511;BME280;74730;43.858;18.424;2024-03-02T09:01:18;94824.91;;;20.12;31.69
84511;BME280;74730;43.858;18.424;2024-03-02T09:03:45;94818.09;;;20.16;31.89
84511;BME280;74730;43.858;18.424;2024-03-02T09:06:13;94816.56;;;20.00;31.81
84511;BME280;74730;43.858;18.424;2024-03-02T09:08:39;94813.91;;;20.10;31.28
84511;BME280;74730;43.858;18.424;2024-03-02T09:11:08;94807.84;;;20.25;31.41
84511;BME280;74730;43.858;18.424;2024-03-02T09:13:33;94807.59;;;20.31;30.85
84511;BME280;74730;43.858;18.424;2024-03-02T09:15:59;94808.91;;;20.34;30.65
84511;BME280;74730;43.858;18.424;2024-03-02T09:18:25;94801.03;;;20.24;30.87
84511;BME280;74730;43.858;18.424;2024-03-02T09:20:50;94800.78;;;20.30;31.17
84511;BME280;74730;43.858;18.424;2024-03-02T09:23:16;94802.59;;;20.35;30.98
84511;BME280;74730;43.858;18.424;2024-03-02T09:25:41;94805.75;;;20.32;30.99
84511;BME280;74730;43.858;18.424;2024-03-02T09:28:07;94800.25;;;20.28;30.43
84511;BME280;74730;43.858;18.424;2024-03-02T09:30:33;94802.34;;;20.21;30.59
84511;BME280;74730;43.858;18.424;2024-03-02T09:32:58;94796.59;;;20.24;30.57
84511;BME280;74730;43.858;18.424;2024-03-02T09:35:24;94800.56;;;20.12;30.51
84511;BME280;74730;43.858;18.424;2024-03-02T09:37:49;94799.22;;;20.19;30.92
84511;BME280;74730;43.858;18.424;2024-03-02T09:40:15;94795.56;;;20.10;30.37
84511;BME280;74730;43.858;18.424;2024-03-02T09:42:41;94791.94;;;19.91;29.05
84511;BME280;74730;43.858;18.424;2024-03-02T09:45:08;94797.72;;;19.53;29.07
84511;BME280;74730;43.858;18.424;2024-03-02T09:47:34;94792.75;;;19.46;29.46
84511;BME280;74730;43.858;18.424;2024-03-02T09:49:59;94787.22;;;19.58;29.73
84511;BME280;74730;43.858;18.424;2024-03-02T09:52:25;94788.03;;;19.58;29.72
84511;BME280;74730;43.858;18.424;2024-03-02T09:54:51;94793.00;;;19.65;29.81
84511;BME280;74730;43.858;18.424;2024-03-02T09:57:17;94796.66;;;19.59;30.00
84511;BME280;74730;43.858;18.424;2024-03-02T09:59:42;94796.91;;;19.62;29.99
84511;BME280;74730;43.858;18.424;2024-03-02T10:02:07;94798.00;;;19.61;30.35
84511;BME280;74730;43.858;18.424;2024-03-02T10:04:33;94798.22;;;19.44;29.81
84511;BME280;74730;43.858;18.424;2024-03-02T10:09:41;94807.63;;;19.35;29.85
84511;BME280;74730;43.858;18.424;2024-03-02T10:12:08;94800.25;;;19.12;29.92
84511;BME280;74730;43.858;18.424;2024-03-02T10:14:34;94793.94;;;18.88;30.08
84511;BME280;74730;43.858;18.424;2024-03-02T10:17:03;94787.88;;;18.77;30.42
84511;BME280;74730;43.858;18.424;2024-03-02T10:19:29;94791.81;;;18.80;31.00
84511;BME280;74730;43.858;18.424;2024-03-02T10:22:07;94790.78;;;18.81;31.00
84511;BME280;74730;43.858;18.424;2024-03-02T10:24:37;94790.75;;;18.76;31.42
84511;BME280;74730;43.858;18.424;2024-03-02T10:27:09;94788.88;;;18.66;31.39
84511;BME280;74730;43.858;18.424;2024-03-02T10:29:38;94795.09;;;18.50;31.43
84511;BME280;74730;43.858;18.424;2024-03-02T10:32:04;94789.59;;;18.46;31.81
84511;BME280;74730;43.858;18.424;2024-03-02T10:34:31;94789.63;;;18.51;32.18
84511;BME280;74730;43.858;18.424;2024-03-02T10:36:57;94788.47;;;18.27;31.97
84511;BME280;74730;43.858;18.424;2024-03-02T10:39:23;94790.44;;;18.05;31.98
84511;BME280;74730;43.858;18.424;2024-03-02T10:41:49;94785.06;;;17.85;32.88
84511;BME280;74730;43.858;18.424;2024-03-02T10:44:17;94780.09;;;17.83;33.12
84511;BME280;74730;43.858;18.424;2024-03-02T10:46:45;94789.50;;;17.84;32.74
84511;BME280;74730;43.858;18.424;2024-03-02T10:49:12;94783.03;;;17.92;32.25
84511;BME280;74730;43.858;18.424;2024-03-02T10:51:37;94789.81;;;17.93;33.10
84511;BME280;74730;43.858;18.424;2024-03-02T10:54:03;94781.56;;;17.69;32.50
84511;BME280;74730;43.858;18.424;2024-03-02T10:56:33;94791.00;;;17.43;32.84
84511;BME280;74730;43.858;18.424;2024-03-02T10:59:02;94784.84;;;17.22;33.50
84511;BME280;74730;43.858;18.424;2024-03-02T11:01:29;94786.56;;;17.12;33.51
84511;BME280;74730;43.858;18.424;2024-03-02T11:03:54;94782.88;;;17.08;34.01
84511;BME280;74730;43.858;18.424;2024-03-02T11:06:22;94785.38;;;16.98;33.98
84511;BME280;74730;43.858;18.424;2024-03-02T11:08:49;94778.88;;;17.00;34.35
84511;BME280;74730;43.858;18.424;2024-03-02T11:11:19;94772.34;;;16.98;33.63
84511;BME280;74730;43.858;18.424;2024-03-02T11:13:48;94774.03;;;17.09;34.66
84511;BME280;74730;43.858;18.424;2024-03-02T11:16:27;94767.75;;;17.10;34.41
84511;BME280;74730;43.858;18.424;2024-03-02T11:19:00;94772.00;;;17.16;33.59
84511;BME280;74730;43.858;18.424;2024-03-02T11:21:25;94779.03;;;17.15;34.61
84511;BME280;74730;43.858;18.424;2024-03-02T11:23:51;94773.28;;;17.13;34.55
84511;BME280;74730;43.858;18.424;2024-03-02T11:26:20;94768.59;;;17.15;35.15
84511;BME280;74730;43.858;18.424;2024-03-02T11:28:46;94776.38;;;17.10;34.06
84511;BME280;74730;43.858;18.424;2024-03-02T11:31:12;94776.03;;;17.02;34.24
84511;BME280;74730;43.858;18.424;2024-03-02T11:33:37;94775.75;;;16.98;34.11
84511;BME280;74730;43.858;18.424;2024-03-02T11:36:03;94771.25;;;16.94;33.50
84511;BME280;74730;43.858;18.424;2024-03-02T11:38:29;94766.66;;;17.06;33.68
84511;BME280;74730;43.858;18.424;2024-03-02T11:40:55;94761.59;;;17.21;33.60
84511;BME280;74730;43.858;18.424;2024-03-02T11:43:21;94766.13;;;17.31;33.28
84511;BME280;74730;43.858;18.424;2024-03-02T11:45:46;94763.00;;;17.34;33.12
84511;BME280;74730;43.858;18.424;2024-03-02T11:48:14;94766.41;;;17.34;33.15
84511;BME280;74730;43.858;18.424;2024-03-02T11:50:40;94753.59;;;17.33;33.23
84511;BME280;74730;43.858;18.424;2024-03-02T11:53:07;94761.69;;;17.31;33.18
84511;BME280;74730;43.858;18.424;2024-03-02T11:55:36;94753.84;;;17.31;32.72
84511;BME280;74730;43.858;18.424;2024-03-02T11:58:04;94751.78;;;17.33;33.05
84511;BME280;74730;43.858;18.424;2024-03-02T12:00:30;94751.53;;;17.35;32.80
84511;BME280;74730;43.858;18.424;2024-03-02T12:03:05;94747.09;;;17.35;32.71
84511;BME280;74730;43.858;18.424;2024-03-02T12:05:31;94755.72;;;17.36;32.34
84511;BME280;74730;43.858;18.424;2024-03-02T12:07:57;94743.47;;;17.36;31.67
84511;BME280;74730;43.858;18.424;2024-03-02T12:10:23;94748.13;;;17.34;32.33
84511;BME280;74730;43.858;18.424;2024-03-02T12:12:54;94746.06;;;17.36;31.83
84511;BME280;74730;43.858;18.424;2024-03-02T12:15:22;94744.22;;;17.32;32.46
84511;BME280;74730;43.858;18.424;2024-03-02T12:17:48;94732.38;;;17.24;33.21
84511;BME280;74730;43.858;18.424;2024-03-02T12:20:13;94746.97;;;17.20;33.55
84511;BME280;74730;43.858;18.424;2024-03-02T12:22:38;94748.13;;;17.34;33.69
84511;BME280;74730;43.858;18.424;2024-03-02T12:25:04;94745.31;;;17.41;32.93
84511;BME280;74730;43.858;18.424;2024-03-02T12:27:29;94737.34;;;17.57;33.10
84511;BME280;74730;43.858;18.424;2024-03-02T12:29:55;94744.78;;;17.76;32.72
84511;BME280;74730;43.858;18.424;2024-03-02T12:32:20;94742.22;;;17.81;32.21
84511;BME280;74730;43.858;18.424;2024-03-02T12:34:47;94738.00;;;17.75;32.60
84511;BME280;74730;43.858;18.424;2024-03-02T12:37:12;94738.94;;;17.58;32.02
84511;BME280;74730;43.858;18.424;2024-03-02T12:39:38;94737.78;;;17.44;32.31
84511;BME280;74730;43.858;18.424;2024-03-02T12:42:04;94736.69;;;17.40;32.46
84511;BME280;74730;43.858;18.424;2024-03-02T12:44:29;94727.53;;;17.38;33.25
84511;BME280;74730;43.858;18.424;2024-03-02T12:46:55;94736.91;;;17.34;32.56
84511;BME280;74730;43.858;18.424;2024-03-02T12:49:21;94736.91;;;17.34;31.97
84511;BME280;74730;43.858;18.424;2024-03-02T12:51:47;94732.97;;;17.31;32.63
84511;BME280;74730;43.858;18.424;2024-03-02T12:54:17;94734.56;;;17.32;32.80
84511;BME280;74730;43.858;18.424;2024-03-02T12:56:42;94736.97;;;17.44;33.32
84511;BME280;74730;43.858;18.424;2024-03-02T12:59:17;94731.00;;;17.48;33.91